CheckWX is a tool to help pilots better visualize weather data.  It is not intended as a substitute for an official pre-flight weather briefing.

09:31:10 UTC

KEKQ METAR
Wayne County Airport
Monticello, Kentucky, USA
Current

23 mins ago

KEKQ 230908Z AUTO 02014KT 10SM FEW026 BKN049 OVC055 19/19 A2998 RMK AO2 PNO $
Observed
Jul-23 @ 09:08 UTC
Wind
  • 020° at 14 KTS
Visibility
10 SM
Flight Rules
VFR
Cloud Levels
  • Few at 2,600' AGL
  • Broken at 4,900' AGL
  • Overcast at 5,500' AGL
Temperature
19°C / 66°F
Dewpoint
19°C / 66°F
Humidity
100%
Altimeter
29.98" Hg
Pressure
1015.22 hPa
Previous

35 mins ago

KEKQ 230856Z AUTO 02015KT 10SM FEW014 BKN026 OVC045 19/19 A2998 RMK AO2 RAE25 SLP162 6//// T01940189 PNO $
Observed
Jul-23 @ 08:56 UTC
Wind
  • 020° at 15 KTS
Visibility
10 SM
Flight Rules
MVFR
Cloud Levels
  • Few at 1,400' AGL
  • Broken at 2,600' AGL
  • Overcast at 4,500' AGL
Temperature
19°C / 66°F
Dewpoint
19°C / 66°F
Humidity
100%
Altimeter
29.98" Hg
Pressure
1015.22 hPa
Previous

1 hour ago

KEKQ 230829Z AUTO 02015G21KT 10SM FEW010 OVC043 19/19 A2998 RMK AO2 RAE25 PNO $
Observed
Jul-23 @ 08:29 UTC
Wind
  • 020° at 15 KTS
  • Gusting to 21 KTS
Visibility
10 SM
Flight Rules
VFR
Cloud Levels
  • Few at 1,000' AGL
  • Overcast at 4,300' AGL
Temperature
19°C / 66°F
Dewpoint
19°C / 66°F
Humidity
100%
Altimeter
29.98" Hg
Pressure
1015.22 hPa